Tropical Cyclones
[Index]
Main Index Home Page Stock Weather Photos Extreme Storms Discussion Storm News and Storm Chasing Reports Tropical Cyclones / Hurricanes / Typhoons Weather Data and Links Wild Fires / Bushfires Weather Observation Techniques Weather Picture Catalogue Tornado Pictures and Reports Stock Video Footage and DVDs for sale
Season 1981-1982 Tropical Cyclone DOMINIC Track Map
Season 1981-1982 Summaries: [BoM-AU] [JTWC-AU] [JTWC-SIO] [JTWC-SPAC] [JTWC-SH]
<<- Previous TC | JTWC 1981-1982 Season | Next TC ->>

click for intensity scale information  Lat/long Grid: Show Hide

 Date Labels: Show Hide

Joint Typhoon Warning Centre Cyclone Data

Name: DOMINIC

04 Apr 1982 12:00 UTC to 13 Apr 1982 12:00 UTC

    date/time    lat    long     hPa   cat  kts
1982-04-04 12   11.3   138.3                  25          
1982-04-04 18   11.1   138.6                  30          
1982-04-05 00   11.0   138.8                  35          
1982-04-05 06   11.1   139.0            1     40          
1982-04-05 12   11.3   139.2            1     45          
1982-04-05 18   11.7   139.3            1     50          
1982-04-06 00   12.1   139.5            2     55          
1982-04-06 06   12.5   139.6            2     60          
1982-04-06 12   12.9   139.8            2     60          
1982-04-06 18   13.4   140.0            2     60          
1982-04-07 00   13.9   140.2            2     65          
1982-04-07 06   14.4   140.6            2     65          
1982-04-07 12   14.8   141.4            2     70          
1982-04-07 18   15.1   142.3            2     60          
1982-04-08 00   15.3   143.2            1     45          
1982-04-08 06   15.5   144.2                  35          
1982-04-08 12   15.5   145.1                  30          
1982-04-08 18   15.3   146.0                  30          
1982-04-09 00   15.1   146.9                  30          
1982-04-09 06   14.9   147.8                  30          
1982-04-09 12   14.7   148.7                  35          
1982-04-09 18   14.5   149.5            1     40          
1982-04-10 00   14.4   150.2            1     40          
1982-04-10 06   14.3   150.8            1     40          
1982-04-10 12   14.2   151.4            1     40          
1982-04-10 18   14.2   151.9            1     40          
1982-04-11 00   14.2   152.3            1     40          
1982-04-11 06   14.3   152.7            1     40          
1982-04-11 12   14.4   152.9            1     40          
1982-04-11 18   14.6   153.0            1     40          
1982-04-12 00   14.9   152.8            1     40          
1982-04-12 06   15.2   152.4            1     40          
1982-04-12 12   15.6   152.0                  35          
1982-04-12 18   16.1   151.6                  35          
1982-04-13 00   16.6   151.1                  30          
1982-04-13 06   17.2   150.6                  30          
1982-04-13 12   18.0   150.0                  25          
Winds are 1-min average.

Tropical cyclone tracks developed by Michael Bath using data from the Joint Typhoon Warning Centre Best Tracks and Google Maps.


[Australian Severe Weather index] [Copyright Notice] [Email Contacts] [Search This Site] [Privacy Policy]
Document: tropical_cyclone_dominic.htm Updated: 18 September 2016